Time;durP1;ratioP1;P1;durP2;ratioP2;P2;SDS_P1;SDS_P2;PMS_P1;PMS_P2;Temp;Humidity;BMP_temperature;BMP_pressure;BME280_temperature;BME280_humidity;BME280_pressure;Samples;Min_cycle;Max_cycle;Signal;HPM_P1;HPM_P2
2023/07/06 00:01:23;;;;;;;2.33;2.13;;;17.60;99.90;;;;;;5104288;28;20035;-49
2023/07/06 00:03:49;;;;;;;4.60;1.90;;;17.70;99.90;;;;;;5097718;28;20034;-48
2023/07/06 00:06:15;;;;;;;2.60;2.08;;;17.70;99.90;;;;;;5098400;28;20455;-47
2023/07/06 00:08:41;;;;;;;7.25;2.50;;;17.60;99.90;;;;;;5113164;28;20051;-46
2023/07/06 00:11:07;;;;;;;35.10;23.85;;;17.50;99.90;;;;;;5101180;28;20051;-46
2023/07/06 00:13:32;;;;;;;55.95;37.72;;;17.50;99.90;;;;;;5100341;28;20035;-44
2023/07/06 00:15:59;;;;;;;4.85;3.53;;;17.40;99.90;;;;;;5090839;28;20108;-47
2023/07/06 00:18:27;;;;;;;3.78;2.13;;;17.40;99.90;;;;;;5092348;28;20020;-50
2023/07/06 00:20:52;;;;;;;4.97;2.10;;;17.40;99.90;;;;;;5090347;28;20040;-46
2023/07/06 00:23:18;;;;;;;4.97;2.03;;;17.40;99.90;;;;;;5092968;28;20071;-52
2023/07/06 00:25:50;;;;;;;5.28;2.67;;;17.30;99.90;;;;;;5094125;28;20915;-48
2023/07/06 00:28:24;;;;;;;11.25;2.30;;;17.30;99.90;;;;;;5099834;28;20015;-47
2023/07/06 00:33:19;;;;;;;8.98;3.30;;;17.30;99.90;;;;;;5084028;28;20025;-51
2023/07/06 00:35:46;;;;;;;5.03;2.63;;;17.30;99.90;;;;;;5066048;28;20429;-52
2023/07/06 00:38:21;;;;;;;3.78;2.10;;;17.30;99.90;;;;;;5086972;28;20074;-46
2023/07/06 00:40:52;;;;;;;2.50;2.30;;;17.20;99.90;;;;;;5088770;28;20445;-47
2023/07/06 00:43:21;;;;;;;6.97;2.53;;;17.20;99.90;;;;;;5088626;28;20042;-48
2023/07/06 00:45:56;;;;;;;4.32;2.67;;;17.10;99.90;;;;;;5088111;28;20115;-47
2023/07/06 00:48:37;;;;;;;10.32;2.33;;;17.10;99.90;;;;;;5088631;28;20526;-48
2023/07/06 00:51:06;;;;;;;7.03;2.40;;;17.10;99.90;;;;;;5076764;28;20115;-52
2023/07/06 00:53:38;;;;;;;3.42;2.22;;;17.10;99.90;;;;;;5075717;28;20064;-47
2023/07/06 00:56:06;;;;;;;4.28;2.50;;;17.00;99.90;;;;;;5083436;28;20020;-47
2023/07/06 00:58:40;;;;;;;10.45;2.20;;;17.00;99.90;;;;;;5087122;28;20094;-49
2023/07/06 01:01:08;;;;;;;6.43;2.70;;;17.00;99.90;;;;;;5088527;28;20535;-47
2023/07/06 01:03:43;;;;;;;2.53;2.10;;;16.90;99.90;;;;;;5088235;28;20475;-49
2023/07/06 01:06:20;;;;;;;6.07;2.60;;;17.00;99.90;;;;;;5071505;28;20029;-49
2023/07/06 01:08:50;;;;;;;12.95;2.17;;;16.90;99.90;;;;;;5070952;28;20492;-49
2023/07/06 01:11:17;;;;;;;4.43;2.35;;;16.80;99.90;;;;;;5086519;28;20040;-46
2023/07/06 01:13:51;;;;;;;6.05;2.92;;;16.80;99.90;;;;;;5088176;28;20384;-46
2023/07/06 01:16:53;;;;;;;7.97;2.65;;;16.70;99.90;;;;;;5080916;28;20040;-46
2023/07/06 01:20:01;;;;;;;2.65;2.03;;;16.70;99.90;;;;;;5086780;28;20487;-46
2023/07/06 01:22:56;;;;;;;2.10;1.90;;;16.70;99.90;;;;;;5088089;28;20052;-46
2023/07/06 01:25:54;;;;;;;4.65;1.90;;;16.60;99.90;;;;;;5087429;28;20032;-46
2023/07/06 01:28:53;;;;;;;5.65;2.60;;;16.60;99.90;;;;;;5088007;28;20509;-48
2023/07/06 01:31:27;;;;;;;7.05;2.88;;;16.50;99.90;;;;;;5077500;28;20024;-48
2023/07/06 01:34:09;;;;;;;6.47;3.13;;;16.50;99.90;;;;;;5076033;28;20025;-46
2023/07/06 01:36:39;;;;;;;4.25;2.28;;;16.60;99.90;;;;;;5035858;28;20033;-46
2023/07/06 01:39:21;;;;;;;8.38;2.65;;;16.60;99.90;;;;;;5034203;28;20087;-47
2023/07/06 01:42:07;;;;;;;6.88;3.03;;;16.50;99.90;;;;;;5034462;28;20026;-46
2023/07/06 01:44:33;;;;;;;9.60;4.07;;;16.40;99.90;;;;;;5034040;28;20370;-49
2023/07/06 01:46:59;;;;;;;3.88;2.60;;;16.40;99.90;;;;;;5040379;28;20124;-47
2023/07/06 01:49:25;;;;;;;7.93;2.92;;;16.30;99.90;;;;;;5068500;28;20524;-50
2023/07/06 01:52:13;;;;;;;5.28;2.50;;;16.30;99.90;;;;;;5059753;28;20029;-45
2023/07/06 01:54:54;;;;;;;11.73;3.53;;;16.20;99.90;;;;;;5054988;28;20558;-51
2023/07/06 01:57:27;;;;;;;5.45;2.55;;;16.20;99.90;;;;;;5053658;28;20098;-50
2023/07/06 01:59:56;;;;;;;8.35;2.42;;;16.20;99.90;;;;;;5052958;28;20035;-51
2023/07/06 02:02:22;;;;;;;6.25;2.55;;;16.20;99.90;;;;;;5054033;28;20075;-46
2023/07/06 02:04:49;;;;;;;3.22;2.13;;;16.30;99.90;;;;;;5065337;28;20183;-49
2023/07/06 02:07:16;;;;;;;4.68;2.20;;;16.30;99.90;;;;;;5073456;28;20013;-49
2023/07/06 02:09:46;;;;;;;4.10;1.75;;;16.30;99.90;;;;;;5074283;28;20074;-48
2023/07/06 02:12:12;;;;;;;7.22;2.45;;;16.30;99.90;;;;;;5074138;28;20033;-51
2023/07/06 02:14:42;;;;;;;4.30;2.40;;;16.40;99.90;;;;;;5073837;28;20028;-47
2023/07/06 02:17:09;;;;;;;4.07;2.30;;;16.40;99.90;;;;;;5063403;28;20400;-47
2023/07/06 02:19:35;;;;;;;7.03;3.03;;;16.40;99.90;;;;;;5064980;28;20051;-47
2023/07/06 02:22:04;;;;;;;3.03;1.90;;;16.50;99.90;;;;;;5072157;28;20055;-47
2023/07/06 02:24:31;;;;;;;2.75;1.92;;;16.50;99.90;;;;;;5071563;28;20032;-51
2023/07/06 02:26:57;;;;;;;3.65;2.25;;;16.60;99.90;;;;;;5065448;28;20439;-52
2023/07/06 02:29:22;;;;;;;6.40;2.25;;;16.60;99.90;;;;;;5064729;28;20047;-52
2023/07/06 02:31:49;;;;;;;3.92;2.30;;;16.60;99.90;;;;;;5073230;28;20021;-49
2023/07/06 02:34:15;;;;;;;5.00;2.40;;;16.70;99.90;;;;;;5073053;28;20025;-50
2023/07/06 02:36:41;;;;;;;11.82;2.50;;;16.60;99.90;;;;;;5072447;28;20434;-48
2023/07/06 02:39:06;;;;;;;4.90;2.45;;;16.60;99.90;;;;;;5072926;28;20028;-47
2023/07/06 02:41:32;;;;;;;6.47;2.17;;;16.60;99.90;;;;;;5068510;28;20093;-48
2023/07/06 02:43:58;;;;;;;7.40;2.78;;;16.50;99.90;;;;;;5064129;28;20036;-46
2023/07/06 02:46:23;;;;;;;5.47;2.78;;;16.50;99.90;;;;;;5072631;28;20104;-47
2023/07/06 02:48:50;;;;;;;3.72;2.47;;;16.50;99.90;;;;;;5070571;28;20047;-47
2023/07/06 02:51:16;;;;;;;4.65;2.20;;;16.40;99.90;;;;;;5072804;28;20051;-46
2023/07/06 02:53:42;;;;;;;7.07;2.78;;;16.40;99.90;;;;;;5072725;28;20479;-46
2023/07/06 02:56:08;;;;;;;5.68;2.28;;;16.30;99.90;;;;;;5065305;28;20057;-47
2023/07/06 02:58:34;;;;;;;7.93;3.15;;;16.30;99.90;;;;;;5064346;28;20017;-46
2023/07/06 03:01:00;;;;;;;6.85;2.40;;;16.30;99.90;;;;;;5072667;28;20025;-50
2023/07/06 03:03:26;;;;;;;5.45;2.38;;;16.20;99.90;;;;;;5072696;28;20028;-43
2023/07/06 03:05:52;;;;;;;4.72;2.28;;;16.20;99.90;;;;;;5061899;28;20021;-46
2023/07/06 03:08:19;;;;;;;9.98;2.90;;;16.20;99.90;;;;;;5070441;28;20032;-45
2023/07/06 03:10:48;;;;;;;5.15;2.53;;;16.10;99.90;;;;;;5072218;28;20182;-51
2023/07/06 03:13:15;;;;;;;5.68;2.85;;;16.10;99.90;;;;;;5060779;28;20108;-50
2023/07/06 03:15:41;;;;;;;8.55;3.42;;;16.10;99.90;;;;;;5071489;28;20445;-51
2023/07/06 03:18:08;;;;;;;6.22;3.40;;;16.10;99.90;;;;;;5072295;28;20029;-43
2023/07/06 03:20:36;;;;;;;4.32;2.60;;;16.00;99.90;;;;;;5072165;28;20020;-48
2023/07/06 03:23:03;;;;;;;6.25;2.50;;;16.00;99.90;;;;;;5072228;28;20020;-47
2023/07/06 03:25:29;;;;;;;5.93;3.05;;;16.00;99.90;;;;;;5071118;28;20437;-48
2023/07/06 03:27:55;;;;;;;5.38;2.67;;;15.90;99.90;;;;;;5059443;28;20025;-48
2023/07/06 03:30:27;;;;;;;4.22;2.67;;;15.90;99.90;;;;;;5070029;28;20598;-51
2023/07/06 03:32:54;;;;;;;5.75;2.72;;;15.80;99.90;;;;;;5072056;28;20032;-48
2023/07/06 03:35:22;;;;;;;3.45;2.60;;;15.70;99.90;;;;;;5066815;28;20396;-53
2023/07/06 03:37:48;;;;;;;9.07;3.13;;;15.60;99.90;;;;;;5065390;28;20017;-49
2023/07/06 03:40:14;;;;;;;8.50;3.00;;;15.60;99.90;;;;;;5071835;28;20020;-47
2023/07/06 03:42:44;;;;;;;8.55;3.13;;;15.70;99.90;;;;;;5053393;28;20033;-46
2023/07/06 03:45:11;;;;;;;4.47;3.17;;;15.80;99.90;;;;;;5059745;28;20036;-47
2023/07/06 03:47:42;;;;;;;6.97;4.13;;;15.90;99.90;;;;;;5071299;28;20021;-51
2023/07/06 03:50:09;;;;;;;8.93;3.55;;;15.80;99.90;;;;;;5071828;28;20028;-49
2023/07/06 03:52:39;;;;;;;8.75;3.25;;;15.70;99.90;;;;;;5071705;28;20021;-46
2023/07/06 03:55:08;;;;;;;10.13;3.10;;;15.60;99.90;;;;;;5071187;28;20028;-49
2023/07/06 03:57:34;;;;;;;7.38;2.78;;;15.50;99.90;;;;;;5068418;28;20111;-49
2023/07/06 03:59:59;;;;;;;7.07;3.05;;;15.50;99.90;;;;;;5063049;28;20025;-48
2023/07/06 04:02:25;;;;;;;11.07;3.20;;;15.50;99.90;;;;;;5072068;28;20035;-50
2023/07/06 04:04:52;;;;;;;11.25;3.15;;;15.60;99.90;;;;;;5071583;28;20036;-53
2023/07/06 04:07:18;;;;;;;7.07;3.33;;;15.70;99.90;;;;;;5070862;28;20020;-47
2023/07/06 04:09:44;;;;;;;4.30;2.60;;;15.70;99.90;;;;;;5071332;28;20025;-52
2023/07/06 04:12:13;;;;;;;4.95;3.35;;;15.70;99.90;;;;;;5066540;28;20104;-46
2023/07/06 04:14:39;;;;;;;5.43;2.90;;;15.70;99.90;;;;;;5051436;28;20013;-47
2023/07/06 04:17:07;;;;;;;3.97;2.78;;;15.70;99.90;;;;;;5049612;28;20103;-47
2023/07/06 04:19:34;;;;;;;4.13;3.10;;;15.80;99.90;;;;;;5051198;28;20043;-47
2023/07/06 04:22:02;;;;;;;4.75;2.85;;;15.90;99.90;;;;;;5051322;28;20369;-46
2023/07/06 04:24:31;;;;;;;3.40;2.72;;;15.90;99.90;;;;;;5051258;28;20492;-46
2023/07/06 04:26:59;;;;;;;6.80;2.80;;;16.10;99.90;;;;;;5049711;28;20021;-48
2023/07/06 04:29:26;;;;;;;6.40;2.40;;;16.10;99.90;;;;;;5060937;28;20029;-48
2023/07/06 04:31:55;;;;;;;2.58;2.30;;;16.20;99.90;;;;;;5071371;28;20048;-46
2023/07/06 04:34:21;;;;;;;5.22;2.65;;;16.30;99.90;;;;;;5071790;28;20020;-46
2023/07/06 04:36:47;;;;;;;5.15;2.30;;;16.30;99.90;;;;;;5061135;28;20036;-50
2023/07/06 04:39:12;;;;;;;4.55;2.78;;;16.40;99.90;;;;;;5067462;28;20484;-47
2023/07/06 04:41:38;;;;;;;3.15;2.22;;;16.50;99.90;;;;;;5071368;28;20119;-49
2023/07/06 04:44:04;;;;;;;6.18;3.10;;;16.60;99.90;;;;;;5058902;28;20033;-45
2023/07/06 04:46:29;;;;;;;3.75;2.22;;;16.70;99.90;;;;;;5069193;28;20486;-46
2023/07/06 04:48:55;;;;;;;4.72;2.63;;;16.70;99.90;;;;;;5070981;28;20021;-46
2023/07/06 04:51:20;;;;;;;4.88;2.40;;;16.80;99.90;;;;;;5071552;28;20023;-45
2023/07/06 04:53:48;;;;;;;4.78;2.13;;;17.00;99.90;;;;;;5070893;28;20365;-44
2023/07/06 04:56:13;;;;;;;2.70;2.50;;;17.20;99.90;;;;;;5057937;28;20028;-47
2023/07/06 04:58:41;;;;;;;8.48;2.72;;;17.40;99.90;;;;;;5069694;28;20033;-46
2023/07/06 05:01:07;;;;;;;7.10;2.47;;;17.50;99.90;;;;;;5070046;28;20031;-47
2023/07/06 05:03:34;;;;;;;4.00;2.67;;;18.10;99.90;;;;;;5067315;28;20021;-51
2023/07/06 05:06:05;;;;;;;2.40;1.95;;;18.60;99.90;;;;;;5062350;28;20078;-52
2023/07/06 05:08:34;;;;;;;6.95;2.50;;;19.30;99.90;;;;;;5066133;28;20028;-54
2023/07/06 05:11:04;;;;;;;4.40;2.10;;;20.10;99.90;;;;;;5075326;28;20090;-54
2023/07/06 05:13:30;;;;;;;5.90;1.92;;;20.90;99.90;;;;;;5074988;28;20021;-50
2023/07/06 05:15:55;;;;;;;5.97;2.30;;;21.70;99.90;;;;;;5074078;28;20400;-47
2023/07/06 05:18:21;;;;;;;4.72;2.17;;;22.50;98.40;;;;;;5074513;28;20484;-48
2023/07/06 05:20:49;;;;;;;7.68;2.28;;;23.30;96.60;;;;;;5062370;28;20033;-49
2023/07/06 05:23:19;;;;;;;2.25;1.98;;;24.10;95.50;;;;;;5070949;28;20016;-46
2023/07/06 05:25:44;;;;;;;11.45;2.33;;;25.00;93.90;;;;;;5072247;28;20040;-47
2023/07/06 05:28:10;;;;;;;5.45;1.60;;;25.60;92.50;;;;;;5074482;28;20024;-50
2023/07/06 05:30:39;;;;;;;5.93;1.98;;;25.80;92.50;;;;;;5074201;28;20028;-48
2023/07/06 05:33:06;;;;;;;1.80;1.70;;;25.80;92.10;;;;;;5074176;28;20021;-52
2023/07/06 05:35:32;;;;;;;4.65;1.98;;;26.10;90.70;;;;;;5061745;28;20027;-49
2023/07/06 05:37:59;;;;;;;3.67;1.75;;;26.60;90.00;;;;;;5068137;28;20095;-52
2023/07/06 05:40:26;;;;;;;2.90;1.65;;;26.40;89.90;;;;;;5074113;28;20484;-52
2023/07/06 05:42:54;;;;;;;3.65;2.00;;;26.10;89.90;;;;;;5067294;28;20028;-52
2023/07/06 05:45:19;;;;;;;2.67;1.60;;;26.20;89.20;;;;;;5065013;28;20485;-53
2023/07/06 05:47:45;;;;;;;3.75;1.70;;;26.50;87.50;;;;;;5066364;28;20029;-50
2023/07/06 05:50:10;;;;;;;5.85;2.00;;;27.10;86.90;;;;;;5060483;28;20053;-52
2023/07/06 05:52:36;;;;;;;6.35;1.70;;;27.10;86.50;;;;;;5064345;28;20096;-47
2023/07/06 05:55:01;;;;;;;3.05;1.40;;;27.80;85.30;;;;;;5073656;28;20502;-47
2023/07/06 05:57:27;;;;;;;3.05;1.40;;;28.20;83.10;;;;;;5072303;28;20473;-51
2023/07/06 05:59:53;;;;;;;1.88;1.33;;;27.60;83.60;;;;;;5073630;28;20086;-48
2023/07/06 06:02:20;;;;;;;1.92;1.40;;;27.90;82.70;;;;;;5073791;28;20167;-48
2023/07/06 06:04:47;;;;;;;3.40;1.65;;;28.00;82.40;;;;;;5069682;28;20095;-52
2023/07/06 06:07:14;;;;;;;4.13;1.40;;;28.30;81.40;;;;;;5059792;28;20029;-49
2023/07/06 06:09:39;;;;;;;3.90;1.38;;;28.90;80.50;;;;;;5057275;22;20557;-47
2023/07/06 06:12:06;;;;;;;3.03;1.70;;;29.00;79.80;;;;;;5014099;28;20112;-48
2023/07/06 06:14:32;;;;;;;3.38;1.20;;;29.60;78.60;;;;;;5013910;28;20482;-47
2023/07/06 06:16:58;;;;;;;4.43;1.50;;;29.40;78.40;;;;;;5012023;28;20041;-47
2023/07/06 06:19:26;;;;;;;2.80;1.30;;;29.60;78.20;;;;;;5012926;28;20467;-49
2023/07/06 06:21:53;;;;;;;1.80;1.52;;;30.00;76.50;;;;;;5004253;28;20538;-51
2023/07/06 06:24:21;;;;;;;3.38;1.38;;;30.20;76.30;;;;;;5029752;28;20405;-46
2023/07/06 06:26:46;;;;;;;5.97;1.55;;;30.40;75.70;;;;;;5032758;28;20160;-47
2023/07/06 06:29:12;;;;;;;3.40;1.42;;;30.60;75.00;;;;;;5033165;28;20108;-48
2023/07/06 06:31:42;;;;;;;2.38;1.38;;;30.10;74.80;;;;;;5008205;28;20047;-45
2023/07/06 06:34:09;;;;;;;2.53;1.58;;;29.40;75.80;;;;;;5028628;28;20025;-47
2023/07/06 06:36:34;;;;;;;5.32;1.65;;;29.30;76.40;;;;;;5032445;28;20045;-50
2023/07/06 06:39:00;;;;;;;1.80;1.40;;;30.00;74.90;;;;;;5033198;28;20119;-48
2023/07/06 06:41:25;;;;;;;3.33;1.40;;;30.30;73.90;;;;;;5015379;28;20374;-48
2023/07/06 06:43:51;;;;;;;2.83;1.40;;;31.00;73.10;;;;;;5033362;28;20033;-47
2023/07/06 06:46:16;;;;;;;7.60;1.40;;;31.30;72.80;;;;;;5025557;28;20026;-50
2023/07/06 06:48:42;;;;;;;6.75;1.58;;;31.70;72.00;;;;;;5024537;28;20065;-51
2023/07/06 06:51:10;;;;;;;3.60;1.40;;;31.30;72.40;;;;;;5027276;28;20020;-50
2023/07/06 06:53:39;;;;;;;2.78;1.42;;;31.00;72.10;;;;;;5021555;28;20056;-46
2023/07/06 06:56:06;;;;;;;3.17;1.50;;;31.10;71.00;;;;;;5026491;28;20048;-47
2023/07/06 06:58:32;;;;;;;6.25;1.20;;;31.30;70.80;;;;;;5032685;28;20072;-51
2023/07/06 07:00:59;;;;;;;4.50;1.13;;;31.70;69.00;;;;;;5032902;28;20037;-46
2023/07/06 07:03:27;;;;;;;3.45;1.38;;;31.90;69.30;;;;;;5026248;28;20025;-49
2023/07/06 07:06:22;;;;;;;4.30;1.27;;;32.10;68.00;;;;;;5024466;28;20033;-50
2023/07/06 07:08:51;;;;;;;3.53;1.50;;;32.00;67.70;;;;;;5029760;28;20033;-47
2023/07/06 07:11:19;;;;;;;2.78;1.48;;;31.70;68.00;;;;;;5032612;28;20482;-47
2023/07/06 07:13:45;;;;;;;5.40;1.50;;;31.30;68.40;;;;;;5032536;28;20083;-47
2023/07/06 07:16:11;;;;;;;2.20;1.17;;;31.00;68.80;;;;;;5031871;28;20024;-51
2023/07/06 07:18:38;;;;;;;2.20;1.35;;;31.40;68.20;;;;;;5023328;28;20044;-49
2023/07/06 07:21:07;;;;;;;1.50;1.00;;;31.10;67.50;;;;;;5016316;28;20026;-50
2023/07/06 07:23:41;;;;;;;2.40;1.27;;;31.40;68.00;;;;;;5023948;28;20496;-50
2023/07/06 07:26:08;;;;;;;2.33;1.08;;;31.10;67.00;;;;;;5031689;28;20021;-47
2023/07/06 07:28:34;;;;;;;1.90;0.88;;;31.20;65.80;;;;;;5032208;28;20025;-49
2023/07/06 07:31:01;;;;;;;5.72;1.20;;;31.00;66.90;;;;;;5032205;28;20128;-50
2023/07/06 07:33:28;;;;;;;2.05;0.95;;;31.20;66.90;;;;;;5022898;28;20014;-46
2023/07/06 07:36:00;;;;;;;4.22;1.40;;;31.70;64.70;;;;;;5023879;28;20033;-48
2023/07/06 07:38:26;;;;;;;1.73;1.08;;;31.80;65.10;;;;;;5032074;28;20031;-49
2023/07/06 07:41:00;;;;;;;1.45;1.10;;;31.90;65.50;;;;;;5032259;28;20485;-46
2023/07/06 07:43:27;;;;;;;;;;;32.30;65.00;;;;;;5032413;28;20111;-46
2023/07/06 07:46:00;;;;;;;1.45;0.98;;;32.60;64.50;;;;;;5030889;28;19916;-46
2023/07/06 07:48:26;;;;;;;5.38;1.30;;;33.40;63.60;;;;;;5021374;28;20107;-46
2023/07/06 07:50:53;;;;;;;4.18;1.40;;;33.90;62.10;;;;;;5031772;28;20057;-46
2023/07/06 07:53:24;;;;;;;2.45;1.17;;;34.60;60.90;;;;;;5031881;28;20033;-46
2023/07/06 07:55:50;;;;;;;4.10;1.10;;;34.60;60.00;;;;;;5023530;28;20067;-46
2023/07/06 07:58:16;;;;;;;1.08;0.90;;;34.20;55.50;;;;;;5023348;28;20050;-47
2023/07/06 08:00:47;;;;;;;5.20;1.50;;;33.40;56.20;;;;;;5032130;28;20462;-47
2023/07/06 08:03:13;;;;;;;3.20;1.27;;;32.60;58.00;;;;;;5023943;28;20061;-46
2023/07/06 08:05:39;;;;;;;1.63;1.02;;;32.50;58.50;;;;;;5022524;28;20430;-46
2023/07/06 08:08:05;;;;;;;4.70;1.02;;;31.90;59.40;;;;;;5031630;28;20022;-46
2023/07/06 08:10:35;;;;;;;4.78;1.20;;;31.10;61.10;;;;;;5031531;28;20428;-48
2023/07/06 08:13:01;;;;;;;1.40;0.93;;;31.10;62.00;;;;;;5031640;28;20023;-46
2023/07/06 08:15:27;;;;;;;2.40;1.20;;;31.20;61.40;;;;;;5009470;28;20090;-49
2023/07/06 08:17:52;;;;;;;1.48;0.80;;;31.60;61.50;;;;;;5024070;28;20017;-45
2023/07/06 08:20:19;;;;;;;2.85;1.23;;;31.80;59.40;;;;;;5013806;28;20040;-45
2023/07/06 08:22:46;;;;;;;3.50;0.80;;;31.60;59.40;;;;;;5031611;28;20076;-45
2023/07/06 08:25:12;;;;;;;6.30;2.90;;;31.70;59.80;;;;;;5031015;28;20017;-45
2023/07/06 08:27:39;;;;;;;3.80;1.08;;;31.80;59.30;;;;;;5031115;28;20026;-49
2023/07/06 08:30:06;;;;;;;2.88;1.05;;;31.10;59.90;;;;;;5025388;28;20018;-45
2023/07/06 08:32:33;;;;;;;0.95;0.80;;;30.80;60.10;;;;;;5014610;28;20018;-47
2023/07/06 08:35:01;;;;;;;7.45;1.75;;;30.00;60.00;;;;;;5021699;28;20110;-45
2023/07/06 08:37:26;;;;;;;2.08;1.00;;;29.50;60.50;;;;;;5022708;28;20041;-45
2023/07/06 08:39:52;;;;;;;1.83;1.10;;;29.20;61.80;;;;;;5031215;28;20053;-47
2023/07/06 08:42:21;;;;;;;4.07;1.10;;;29.20;62.00;;;;;;5031270;28;20032;-47
2023/07/06 08:44:53;;;;;;;6.72;1.23;;;29.00;61.90;;;;;;5031066;28;20033;-48
2023/07/06 08:47:18;;;;;;;2.25;0.93;;;28.70;63.20;;;;;;5030443;28;20021;-48
2023/07/06 08:49:45;;;;;;;5.30;1.40;;;28.60;63.00;;;;;;5023922;28;20029;-46
2023/07/06 08:52:12;;;;;;;1.48;0.90;;;28.50;63.10;;;;;;5029352;28;20100;-48
2023/07/06 08:54:39;;;;;;;2.72;1.25;;;28.30;63.80;;;;;;5035110;28;20052;-47
2023/07/06 08:57:15;;;;;;;3.92;2.08;;;28.60;64.10;;;;;;5016689;28;20021;-48
2023/07/06 08:59:48;;;;;;;2.67;1.00;;;28.70;62.20;;;;;;5035520;28;20022;-52
2023/07/06 09:02:18;;;;;;;2.13;0.98;;;28.70;63.00;;;;;;5034946;28;20033;-51
2023/07/06 09:04:46;;;;;;;6.13;1.25;;;28.50;63.00;;;;;;5022953;28;20040;-46
2023/07/06 09:07:13;;;;;;;4.15;1.48;;;28.20;63.00;;;;;;5028299;28;20022;-51
2023/07/06 09:09:43;;;;;;;3.17;1.20;;;27.90;63.90;;;;;;5034509;28;20071;-49
2023/07/06 09:12:33;;;;;;;2.42;1.10;;;27.50;64.80;;;;;;5034699;28;20108;-52
2023/07/06 09:14:59;;;;;;;3.40;1.35;;;27.20;64.40;;;;;;5024518;28;20038;-46
2023/07/06 09:17:26;;;;;;;1.45;0.93;;;27.40;63.70;;;;;;5031114;28;20021;-46
2023/07/06 09:19:56;;;;;;;3.03;1.30;;;26.80;63.20;;;;;;5021239;28;20030;-47
2023/07/06 09:22:23;;;;;;;4.38;1.33;;;26.50;63.80;;;;;;5021482;28;20034;-50
2023/07/06 09:24:50;;;;;;;4.25;1.90;;;26.40;64.10;;;;;;5020908;28;20042;-46
2023/07/06 09:27:28;;;;;;;1.30;1.08;;;26.70;64.00;;;;;;5021444;28;20026;-47
2023/07/06 09:30:00;;;;;;;4.65;1.10;;;26.70;64.40;;;;;;5034564;28;20555;-48
2023/07/06 09:32:27;;;;;;;4.05;1.25;;;26.80;63.20;;;;;;5034732;28;20029;-50
2023/07/06 09:35:03;;;;;;;2.75;1.10;;;26.80;63.60;;;;;;5034342;28;20034;-46
2023/07/06 09:37:28;;;;;;;4.57;1.30;;;26.60;64.20;;;;;;5034134;28;20524;-50
2023/07/06 09:40:03;;;;;;;1.35;0.90;;;26.60;64.00;;;;;;5013716;28;20037;-48
2023/07/06 09:42:29;;;;;;;2.63;1.42;;;26.00;63.40;;;;;;5022566;28;20030;-44
2023/07/06 09:44:55;;;;;;;6.10;1.27;;;25.90;64.40;;;;;;5016154;28;20032;-49
2023/07/06 09:47:22;;;;;;;1.13;1.02;;;25.90;65.10;;;;;;5033759;28;20018;-47
2023/07/06 09:49:55;;;;;;;1.75;1.33;;;26.10;65.50;;;;;;5034396;28;20374;-49
2023/07/06 09:52:22;;;;;;;1.65;1.30;;;26.40;64.60;;;;;;5034172;28;20420;-46
2023/07/06 09:54:54;;;;;;;3.38;1.27;;;26.40;63.80;;;;;;5029717;28;20055;-49
2023/07/06 09:57:24;;;;;;;2.53;1.25;;;26.20;64.50;;;;;;5021276;28;20033;-46
2023/07/06 09:59:52;;;;;;;4.53;1.42;;;26.20;64.10;;;;;;5014119;28;20420;-47
2023/07/06 10:02:26;;;;;;;1.77;1.23;;;26.00;63.80;;;;;;5014074;28;20032;-48
2023/07/06 10:05:22;;;;;;;1.30;1.20;;;25.90;63.10;;;;;;4992372;28;20394;-51
2023/07/06 10:08:16;;;;;;;1.48;1.38;;;25.90;64.20;;;;;;5007564;28;20095;-46
2023/07/06 10:11:01;;;;;;;2.00;1.08;;;25.60;64.90;;;;;;5034156;28;20030;-48
2023/07/06 10:13:36;;;;;;;2.58;1.40;;;25.40;65.30;;;;;;5034041;28;20025;-46
2023/07/06 10:16:11;;;;;;;2.42;1.10;;;25.40;65.20;;;;;;5033534;28;20025;-47
2023/07/06 10:18:49;;;;;;;14.30;2.55;;;25.60;65.90;;;;;;5033959;28;20025;-47
2023/07/06 10:21:50;;;;;;;5.68;2.70;;;25.70;65.30;;;;;;5022759;28;20025;-44
2023/07/06 10:24:34;;;;;;;2.08;1.30;;;25.70;65.40;;;;;;4976421;28;20038;-46
2023/07/06 10:27:04;;;;;;;6.20;1.33;;;25.70;65.60;;;;;;5014283;28;20412;-46
2023/07/06 10:29:41;;;;;;;1.52;1.42;;;25.40;65.20;;;;;;4996046;28;20497;-48
2023/07/06 10:32:17;;;;;;;3.15;1.40;;;25.30;65.50;;;;;;5017063;28;20013;-47
2023/07/06 10:34:54;;;;;;;2.22;1.23;;;25.30;64.70;;;;;;5025097;28;20045;-46
2023/07/06 10:37:20;;;;;;;2.13;1.58;;;25.30;65.20;;;;;;5032839;28;20025;-48
2023/07/06 10:39:46;;;;;;;5.50;1.20;;;25.40;65.90;;;;;;5006374;28;20029;-47
2023/07/06 10:42:25;;;;;;;1.58;1.48;;;25.50;65.30;;;;;;5027185;28;20385;-51
2023/07/06 10:45:02;;;;;;;3.30;1.27;;;25.20;65.00;;;;;;5032915;28;20025;-49
2023/07/06 10:47:34;;;;;;;6.68;1.45;;;25.10;65.40;;;;;;5032825;28;20052;-48
2023/07/06 10:50:19;;;;;;;1.88;1.50;;;25.20;65.40;;;;;;5033244;28;20048;-47
2023/07/06 10:52:57;;;;;;;2.50;1.50;;;25.20;64.60;;;;;;5029957;28;20097;-45
2023/07/06 10:55:26;;;;;;;1.40;1.25;;;25.00;64.60;;;;;;5020959;28;20041;-52
2023/07/06 10:58:04;;;;;;;1.50;1.40;;;25.00;64.00;;;;;;5031408;28;20315;-49
2023/07/06 11:00:33;;;;;;;2.47;1.50;;;25.00;64.00;;;;;;5032716;28;20376;-49
2023/07/06 11:03:01;;;;;;;1.77;1.27;;;25.10;64.60;;;;;;5032825;28;20029;-47
2023/07/06 11:05:35;;;;;;;5.05;1.17;;;25.20;64.40;;;;;;5032122;28;20044;-48
2023/07/06 11:08:11;;;;;;;2.35;1.20;;;25.10;64.90;;;;;;5028353;28;20018;-49
2023/07/06 11:10:39;;;;;;;4.32;1.40;;;25.20;64.30;;;;;;5024266;28;20104;-47
2023/07/06 11:13:04;;;;;;;1.65;1.20;;;25.00;64.10;;;;;;5030956;28;20036;-47
2023/07/06 11:15:41;;;;;;;1.65;1.20;;;24.90;64.10;;;;;;5020049;28;20022;-49
2023/07/06 11:18:22;;;;;;;2.75;1.63;;;24.80;64.40;;;;;;5032578;28;20026;-46
2023/07/06 11:20:56;;;;;;;1.55;1.25;;;24.50;65.50;;;;;;5032424;28;20036;-47
2023/07/06 11:23:42;;;;;;;1.98;1.42;;;24.50;65.50;;;;;;5032549;28;20018;-47
2023/07/06 11:26:14;;;;;;;;;;;24.50;65.80;;;;;;5031987;28;20030;-46
2023/07/06 11:28:42;;;;;;;3.53;1.60;;;24.50;65.90;;;;;;5024186;28;20328;-49
2023/07/06 11:31:25;;;;;;;10.02;1.65;;;24.30;66.00;;;;;;5024122;28;20048;-49
2023/07/06 11:33:58;;;;;;;6.20;1.42;;;24.50;65.50;;;;;;5032339;28;20146;-47
2023/07/06 11:36:54;;;;;;;5.28;1.77;;;24.40;66.00;;;;;;5028109;28;20026;-48
2023/07/06 11:39:31;;;;;;;4.75;1.20;;;24.40;66.30;;;;;;5014795;28;20022;-47
2023/07/06 11:42:06;;;;;;;2.65;1.48;;;24.30;67.00;;;;;;4994933;28;20017;-47
2023/07/06 11:44:41;;;;;;;3.85;1.38;;;24.40;65.80;;;;;;5012545;28;20080;-47
2023/07/06 11:47:41;;;;;;;3.63;1.38;;;24.40;66.60;;;;;;5017994;28;20026;-51
2023/07/06 11:50:13;;;;;;;3.25;1.70;;;24.30;66.30;;;;;;4992696;28;20495;-47
2023/07/06 11:52:44;;;;;;;4.22;1.27;;;24.30;66.20;;;;;;5016877;28;20026;-49
2023/07/06 11:55:31;;;;;;;7.65;1.90;;;24.30;66.90;;;;;;5031550;28;20032;-51
2023/07/06 11:58:18;;;;;;;1.70;1.60;;;24.40;66.70;;;;;;5032104;28;20036;-46
2023/07/06 12:00:50;;;;;;;4.30;1.42;;;24.40;66.70;;;;;;5031771;28;20039;-46
2023/07/06 12:03:20;;;;;;;5.07;1.27;;;24.50;67.00;;;;;;5031785;28;20558;-47
2023/07/06 12:05:47;;;;;;;4.13;1.48;;;24.60;66.60;;;;;;5018598;28;20061;-47
2023/07/06 12:08:16;;;;;;;4.35;1.30;;;24.70;66.10;;;;;;5024569;28;20028;-48
2023/07/06 12:10:45;;;;;;;5.70;1.63;;;24.70;65.80;;;;;;5051568;22;20077;-51
2023/07/06 12:13:17;;;;;;;2.75;1.40;;;24.80;66.10;;;;;;5039542;28;20018;-51
2023/07/06 12:15:42;;;;;;;2.70;1.38;;;24.80;65.30;;;;;;5046218;28;20115;-52
2023/07/06 12:18:14;;;;;;;2.17;1.38;;;24.80;65.30;;;;;;5051527;28;20226;-51
2023/07/06 12:20:40;;;;;;;5.28;1.98;;;24.80;65.30;;;;;;5041206;28;20030;-51
2023/07/06 12:23:11;;;;;;;2.42;1.42;;;24.80;65.50;;;;;;5043491;28;20392;-50
2023/07/06 12:25:41;;;;;;;3.78;1.80;;;24.80;65.50;;;;;;5050001;28;20211;-53
2023/07/06 12:28:15;;;;;;;1.50;1.40;;;24.70;64.00;;;;;;5051344;28;20068;-49
2023/07/06 12:30:40;;;;;;;1.40;1.30;;;24.70;64.50;;;;;;5051429;28;20024;-54
2023/07/06 12:33:19;;;;;;;3.03;1.42;;;24.80;65.00;;;;;;5051381;28;20025;-53
2023/07/06 12:35:46;;;;;;;8.88;1.50;;;24.90;64.70;;;;;;5039271;28;20029;-55
2023/07/06 12:38:15;;;;;;;1.77;1.13;;;25.00;64.60;;;;;;5031781;28;20048;-49
2023/07/06 12:40:41;;;;;;;5.32;1.70;;;25.10;64.30;;;;;;5031271;28;20029;-53
2023/07/06 12:43:36;;;;;;;3.55;1.30;;;25.10;62.50;;;;;;5031240;28;20045;-55
2023/07/06 12:46:03;;;;;;;1.43;1.33;;;25.10;62.60;;;;;;5016066;28;20037;-53
2023/07/06 12:48:29;;;;;;;4.38;1.20;;;25.00;61.90;;;;;;5030211;28;20273;-54
2023/07/06 12:50:55;;;;;;;2.30;1.40;;;25.10;62.90;;;;;;5041151;28;20033;-53
2023/07/06 12:53:30;;;;;;;1.15;1.00;;;25.20;63.30;;;;;;5051285;28;20025;-54
2023/07/06 12:56:00;;;;;;;4.10;2.03;;;25.10;62.90;;;;;;5050230;28;20029;-50
2023/07/06 12:58:29;;;;;;;1.42;1.40;;;25.20;63.60;;;;;;5050958;28;20036;-50
2023/07/06 13:01:10;;;;;;;1.90;1.45;;;25.10;63.50;;;;;;5051086;28;20104;-51
2023/07/06 13:03:56;;;;;;;2.03;1.05;;;25.20;63.20;;;;;;5044311;28;20026;-49
2023/07/06 13:06:25;;;;;;;4.55;1.70;;;25.10;62.40;;;;;;5032477;28;20025;-51